Time;durP1;ratioP1;P1;durP2;ratioP2;P2;SDS_P1;SDS_P2;PMS_P1;PMS_P2;Temp;Humidity;BMP_temperature;BMP_pressure;BME280_temperature;BME280_humidity;BME280_pressure;Samples;Min_cycle;Max_cycle;Signal;HPM_P1;HPM_P2
2021/10/26 00:02:17;;;;;;;10.32;3.30;;;9.90;99.90;;;;;;5035129;28;20041;-87
2021/10/26 00:04:45;;;;;;;7.35;2.72;;;9.90;99.90;;;;;;5000997;28;20489;-86
2021/10/26 00:07:13;;;;;;;6.85;2.58;;;9.90;99.90;;;;;;5016279;28;20045;-86
2021/10/26 00:09:41;;;;;;;11.02;4.85;;;10.00;99.90;;;;;;5000542;28;20061;-84
2021/10/26 00:12:10;;;;;;;11.52;3.60;;;9.90;99.90;;;;;;5007349;28;20521;-85
2021/10/26 00:14:38;;;;;;;15.85;3.47;;;9.80;99.90;;;;;;5030099;28;20528;-86
2021/10/26 00:17:06;;;;;;;9.57;4.60;;;9.80;99.90;;;;;;5015245;28;20050;-86
2021/10/26 00:19:34;;;;;;;8.77;3.72;;;9.80;99.90;;;;;;5016245;28;20496;-86
2021/10/26 00:22:03;;;;;;;14.18;4.05;;;9.80;99.90;;;;;;4997127;28;20074;-86
2021/10/26 00:24:33;;;;;;;13.33;4.03;;;9.80;99.90;;;;;;5000341;28;20053;-87
2021/10/26 00:27:01;;;;;;;10.63;4.10;;;9.90;99.90;;;;;;5017715;28;20657;-86
2021/10/26 00:29:29;;;;;;;18.02;3.97;;;9.90;99.90;;;;;;5017739;28;20444;-85
2021/10/26 00:31:58;;;;;;;11.57;4.10;;;9.90;99.90;;;;;;5001401;28;20068;-86
2021/10/26 00:34:26;;;;;;;8.52;4.65;;;9.90;99.90;;;;;;5016078;28;20940;-86
2021/10/26 00:36:55;;;;;;;14.65;3.72;;;9.90;99.90;;;;;;5047396;28;20048;-85
2021/10/26 00:39:24;;;;;;;14.60;3.70;;;10.00;99.90;;;;;;5024360;28;20053;-86
2021/10/26 00:41:54;;;;;;;8.07;3.65;;;10.10;99.90;;;;;;5017795;28;20049;-86
2021/10/26 00:44:23;;;;;;;13.43;4.53;;;10.00;99.90;;;;;;5020319;28;20057;-86
2021/10/26 00:46:50;;;;;;;21.50;4.70;;;10.00;99.90;;;;;;5022388;28;20064;-88
2021/10/26 00:49:18;;;;;;;14.70;4.80;;;10.00;99.90;;;;;;5019636;28;20052;-86
2021/10/26 00:51:49;;;;;;;15.75;4.60;;;9.90;99.90;;;;;;5036994;28;20485;-86
2021/10/26 00:54:18;;;;;;;17.10;5.88;;;10.00;99.90;;;;;;5009389;28;20042;-85
2021/10/26 00:56:52;;;;;;;13.43;3.85;;;9.90;99.90;;;;;;5014182;28;20037;-87
2021/10/26 00:59:20;;;;;;;8.85;3.90;;;10.00;99.90;;;;;;5029785;28;20049;-85
2021/10/26 01:01:50;;;;;;;16.17;3.90;;;10.40;99.90;;;;;;5025242;28;20393;-86
2021/10/26 01:04:21;;;;;;;11.60;3.65;;;9.90;99.90;;;;;;5017323;28;20414;-87
2021/10/26 01:06:49;;;;;;;12.93;4.35;;;9.90;99.90;;;;;;5013707;28;20056;-86
2021/10/26 01:09:18;;;;;;;15.35;3.85;;;9.90;99.90;;;;;;5001379;28;20045;-87
2021/10/26 01:11:47;;;;;;;15.65;5.47;;;9.90;99.90;;;;;;5014182;28;20045;-86
2021/10/26 01:14:17;;;;;;;9.70;3.83;;;9.90;99.90;;;;;;5016070;28;20053;-87
2021/10/26 01:16:45;;;;;;;11.10;4.57;;;9.90;99.90;;;;;;5009621;28;20037;-86
2021/10/26 01:19:15;;;;;;;12.67;4.27;;;9.90;99.90;;;;;;4999643;28;20049;-85
2021/10/26 01:21:44;;;;;;;11.73;4.85;;;9.90;99.90;;;;;;5016056;28;20053;-87
2021/10/26 01:24:14;;;;;;;18.98;4.78;;;9.90;99.90;;;;;;4999250;28;20057;-86
2021/10/26 01:26:44;;;;;;;13.32;3.42;;;9.90;99.90;;;;;;4996351;28;20053;-85
2021/10/26 01:29:12;;;;;;;17.42;3.45;;;9.90;99.90;;;;;;5010916;28;20389;-86
2021/10/26 01:31:43;;;;;;;14.30;3.77;;;9.90;99.90;;;;;;5023097;28;20056;-86
2021/10/26 01:34:26;;;;;;;9.98;4.10;;;9.90;99.90;;;;;;5019777;28;20050;-86
2021/10/26 01:36:58;;;;;;;15.52;4.90;;;9.90;99.90;;;;;;5012150;28;20054;-85
2021/10/26 01:39:29;;;;;;;10.25;3.58;;;9.90;99.90;;;;;;5011866;28;20053;-87
2021/10/26 01:41:57;;;;;;;12.68;3.05;;;10.00;99.90;;;;;;4992911;28;20054;-86
2021/10/26 01:44:26;;;;;;;14.60;3.63;;;10.00;99.90;;;;;;5015870;28;20072;-87
2021/10/26 01:47:00;;;;;;;7.82;2.95;;;10.00;99.90;;;;;;5014093;28;20053;-87
2021/10/26 01:49:30;;;;;;;14.98;5.07;;;10.00;99.90;;;;;;5017028;28;20049;-87
2021/10/26 01:51:59;;;;;;;10.98;3.20;;;10.00;99.90;;;;;;5018164;28;20056;-85
2021/10/26 01:54:29;;;;;;;10.85;4.57;;;10.00;99.90;;;;;;5017070;28;20064;-86
2021/10/26 01:56:57;;;;;;;8.57;4.55;;;10.00;99.90;;;;;;5017663;28;20077;-85
2021/10/26 01:59:36;;;;;;;9.88;3.17;;;9.90;99.90;;;;;;5000903;28;20069;-86
2021/10/26 02:02:05;;;;;;;12.93;3.45;;;10.00;99.90;;;;;;5013359;28;20049;-86
2021/10/26 02:04:36;;;;;;;14.48;3.88;;;10.00;99.90;;;;;;5021891;28;20049;-87
2021/10/26 02:07:04;;;;;;;13.45;4.53;;;9.90;99.90;;;;;;5031891;28;20053;-87
2021/10/26 02:09:32;;;;;;;10.95;4.97;;;9.80;99.90;;;;;;5024820;28;20054;-86
2021/10/26 02:12:01;;;;;;;9.95;3.05;;;9.90;99.90;;;;;;5034854;28;20038;-86
2021/10/26 02:14:29;;;;;;;12.15;3.13;;;10.00;99.90;;;;;;5002406;28;20060;-87
2021/10/26 02:17:01;;;;;;;10.82;4.68;;;10.00;99.90;;;;;;5019701;28;20516;-87
2021/10/26 02:19:32;;;;;;;16.27;3.28;;;9.90;99.90;;;;;;5043266;28;20049;-87
2021/10/26 02:22:02;;;;;;;8.02;3.35;;;10.00;99.90;;;;;;5010634;28;20049;-85
2021/10/26 02:24:29;;;;;;;18.23;3.70;;;10.00;99.90;;;;;;5019185;28;20057;-88
2021/10/26 02:26:57;;;;;;;15.95;3.65;;;10.00;99.90;;;;;;5025774;28;20045;-86
2021/10/26 02:29:26;;;;;;;11.32;3.25;;;10.10;99.90;;;;;;5024298;28;20063;-87
2021/10/26 02:31:59;;;;;;;8.10;2.65;;;10.10;99.90;;;;;;4999434;28;20057;-87
2021/10/26 02:34:27;;;;;;;12.93;3.53;;;10.30;99.90;;;;;;4999939;28;20049;-87
2021/10/26 02:36:56;;;;;;;23.38;4.07;;;10.20;99.90;;;;;;4999067;28;20057;-87
2021/10/26 02:39:24;;;;;;;11.60;2.88;;;10.20;99.90;;;;;;5020327;28;20060;-87
2021/10/26 02:41:55;;;;;;;12.75;3.42;;;10.20;99.90;;;;;;5017125;28;20037;-86
2021/10/26 02:44:23;;;;;;;9.93;2.85;;;10.30;99.90;;;;;;5001709;28;20067;-88
2021/10/26 02:46:51;;;;;;;8.82;2.60;;;10.30;99.90;;;;;;5000582;28;20045;-87
2021/10/26 02:49:20;;;;;;;9.20;2.95;;;10.40;99.90;;;;;;5017283;28;20046;-86
2021/10/26 02:51:48;;;;;;;10.68;3.35;;;10.40;99.90;;;;;;5019773;28;20045;-87
2021/10/26 02:54:17;;;;;;;6.50;3.22;;;10.50;99.90;;;;;;5035706;28;20037;-85
2021/10/26 02:56:46;;;;;;;13.70;3.80;;;10.60;99.90;;;;;;5002812;28;20034;-89
2021/10/26 02:59:14;;;;;;;11.13;2.33;;;10.60;99.90;;;;;;5003355;28;20064;-87
2021/10/26 03:01:44;;;;;;;7.57;2.90;;;10.70;99.90;;;;;;5003223;28;20056;-88
2021/10/26 03:04:15;;;;;;;9.43;2.33;;;10.80;99.90;;;;;;5005717;28;20493;-87
2021/10/26 03:06:43;;;;;;;11.32;3.63;;;10.80;99.90;;;;;;5021166;28;20041;-89
2021/10/26 03:09:12;;;;;;;9.43;3.42;;;10.90;99.90;;;;;;5022839;28;20420;-88
2021/10/26 03:11:40;;;;;;;10.43;2.38;;;10.90;99.90;;;;;;5020883;28;20048;-87
2021/10/26 03:14:09;;;;;;;12.20;3.33;;;11.00;99.90;;;;;;4671098;28;10000214;-88
2021/10/26 03:16:37;;;;;;;10.70;3.70;;;11.00;99.90;;;;;;5038629;28;20289;-87
2021/10/26 03:19:06;;;;;;;8.82;4.07;;;11.00;99.90;;;;;;5020725;28;20053;-88
2021/10/26 03:21:37;;;;;;;6.10;2.78;;;11.10;99.90;;;;;;5021374;28;20061;-87
2021/10/26 03:24:06;;;;;;;11.80;2.35;;;11.10;99.90;;;;;;5020599;28;20056;-86
2021/10/26 03:26:35;;;;;;;9.70;3.72;;;11.10;99.90;;;;;;5020334;28;20052;-87
2021/10/26 03:29:06;;;;;;;10.63;3.33;;;11.10;99.90;;;;;;5017630;28;20064;-86
2021/10/26 03:31:36;;;;;;;10.38;3.53;;;11.10;99.90;;;;;;4982753;28;20050;-88
2021/10/26 03:34:34;;;;;;;5.97;2.30;;;11.20;99.90;;;;;;4990857;28;20058;-86
2021/10/26 03:37:05;;;;;;;6.25;3.58;;;11.20;99.90;;;;;;4984197;28;20057;-86
2021/10/26 03:39:33;;;;;;;13.13;3.13;;;11.20;99.90;;;;;;5013509;28;20026;-87
2021/10/26 03:42:04;;;;;;;;;;;11.20;99.90;;;;;;5030236;28;20045;-88
2021/10/26 03:44:32;;;;;;;5.20;2.03;;;11.20;99.90;;;;;;5031207;28;19924;-86
2021/10/26 03:47:00;;;;;;;11.35;3.00;;;11.20;99.90;;;;;;4990545;28;20042;-87
2021/10/26 03:49:28;;;;;;;6.43;2.33;;;11.30;99.90;;;;;;5015227;28;20046;-88
2021/10/26 03:51:57;;;;;;;7.75;2.45;;;11.30;99.90;;;;;;4983638;28;20057;-86
2021/10/26 03:54:24;;;;;;;9.60;2.80;;;11.30;99.90;;;;;;4996583;28;20054;-86
2021/10/26 03:56:53;;;;;;;5.63;2.50;;;11.30;99.90;;;;;;4996997;28;20046;-88
2021/10/26 03:59:24;;;;;;;10.40;3.33;;;11.30;99.90;;;;;;4996105;28;20050;-88
2021/10/26 04:01:52;;;;;;;12.15;3.78;;;11.40;99.90;;;;;;4996146;28;20050;-89
2021/10/26 04:04:22;;;;;;;11.18;2.80;;;11.40;99.90;;;;;;4979922;28;20065;-88
2021/10/26 04:06:50;;;;;;;7.72;2.80;;;11.40;99.90;;;;;;4962625;28;20043;-89
2021/10/26 04:09:25;;;;;;;7.97;3.55;;;11.40;99.90;;;;;;4995290;28;20054;-85
2021/10/26 04:12:16;;;;;;;9.77;2.83;;;11.50;99.90;;;;;;5011130;28;20042;-88
2021/10/26 04:14:43;;;;;;;6.70;3.03;;;11.50;99.90;;;;;;4988275;28;20042;-88
2021/10/26 04:17:14;;;;;;;12.40;3.03;;;11.50;99.90;;;;;;4994355;28;20065;-88
2021/10/26 04:19:42;;;;;;;11.68;2.50;;;11.50;99.90;;;;;;4995541;28;20073;-88
2021/10/26 04:22:10;;;;;;;11.00;2.83;;;11.50;99.90;;;;;;5009684;28;20055;-87
2021/10/26 04:24:39;;;;;;;10.05;2.65;;;11.50;99.90;;;;;;4995208;28;20042;-89
2021/10/26 04:27:07;;;;;;;12.80;2.97;;;11.60;99.90;;;;;;4979342;28;20046;-89
2021/10/26 04:29:38;;;;;;;6.82;2.78;;;11.60;99.90;;;;;;4994050;28;20061;-88
2021/10/26 04:32:10;;;;;;;10.77;3.13;;;11.50;99.90;;;;;;5010636;28;20745;-88
2021/10/26 04:34:40;;;;;;;9.25;3.30;;;11.60;99.90;;;;;;5013746;28;20049;-88
2021/10/26 04:37:10;;;;;;;8.38;3.15;;;11.60;99.90;;;;;;5014361;28;20050;-88
2021/10/26 04:39:45;;;;;;;10.52;3.47;;;11.60;99.90;;;;;;5013820;28;20049;-87
2021/10/26 04:42:14;;;;;;;9.13;2.88;;;11.60;99.90;;;;;;4997154;28;20042;-88
2021/10/26 04:44:42;;;;;;;10.43;3.63;;;11.60;99.90;;;;;;4996356;28;20053;-88
2021/10/26 04:47:15;;;;;;;10.23;3.55;;;11.60;99.90;;;;;;5017462;28;20060;-87
2021/10/26 04:49:43;;;;;;;10.33;3.83;;;11.60;99.90;;;;;;5013151;28;20060;-87
2021/10/26 04:52:12;;;;;;;11.25;3.17;;;11.60;99.90;;;;;;5013748;28;20183;-87
2021/10/26 04:54:40;;;;;;;7.72;3.20;;;11.70;99.90;;;;;;4980063;28;20050;-87
2021/10/26 04:57:09;;;;;;;6.90;2.75;;;11.60;99.90;;;;;;5029837;28;20045;-87
2021/10/26 04:59:56;;;;;;;7.30;2.60;;;11.60;99.90;;;;;;5014979;28;20048;-87
2021/10/26 05:02:27;;;;;;;7.50;2.85;;;11.70;99.90;;;;;;4998167;28;20153;-86
2021/10/26 05:04:55;;;;;;;5.15;2.40;;;11.60;99.90;;;;;;5007904;28;20673;-86
2021/10/26 05:07:24;;;;;;;5.50;2.92;;;11.70;99.90;;;;;;5023609;28;20052;-87
2021/10/26 05:09:55;;;;;;;3.75;2.33;;;11.70;99.90;;;;;;5022870;28;20058;-87
2021/10/26 05:12:24;;;;;;;10.80;3.65;;;11.60;99.90;;;;;;5016409;28;20042;-87
2021/10/26 05:14:52;;;;;;;11.43;4.30;;;11.70;99.90;;;;;;5010170;28;20054;-86
2021/10/26 05:17:40;;;;;;;8.98;3.75;;;11.60;99.90;;;;;;5029340;28;20041;-86
2021/10/26 05:20:28;;;;;;;13.32;4.28;;;11.60;99.90;;;;;;5013943;28;20050;-87
2021/10/26 05:23:31;;;;;;;12.80;5.13;;;11.60;99.90;;;;;;5008191;28;20053;-86
2021/10/26 05:26:18;;;;;;;13.80;5.78;;;11.50;99.90;;;;;;4997028;28;20083;-88
2021/10/26 05:28:48;;;;;;;9.30;4.43;;;11.50;99.90;;;;;;5013559;28;20425;-89
2021/10/26 05:31:17;;;;;;;10.43;4.53;;;11.50;99.90;;;;;;4980750;28;20044;-86
2021/10/26 05:33:47;;;;;;;15.55;5.45;;;11.50;99.90;;;;;;5013091;28;20053;-86
2021/10/26 05:36:16;;;;;;;9.95;4.85;;;11.50;99.90;;;;;;5012950;28;20049;-90
2021/10/26 05:38:47;;;;;;;13.85;5.70;;;11.50;99.90;;;;;;5016595;28;20049;-88
2021/10/26 05:41:18;;;;;;;10.35;5.00;;;11.50;99.90;;;;;;5010928;28;20049;-88
2021/10/26 05:43:46;;;;;;;9.80;5.25;;;11.70;99.90;;;;;;4982624;28;20524;-87
2021/10/26 05:46:14;;;;;;;13.93;6.32;;;11.40;99.90;;;;;;4998023;28;20308;-87
2021/10/26 05:48:43;;;;;;;14.45;5.28;;;11.40;99.90;;;;;;5018978;28;20054;-87
2021/10/26 05:51:11;;;;;;;12.57;5.05;;;11.40;99.90;;;;;;5017512;28;20049;-87
2021/10/26 05:53:42;;;;;;;10.88;4.97;;;11.40;99.90;;;;;;4985127;28;20049;-90
2021/10/26 05:56:10;;;;;;;14.27;5.68;;;11.30;99.90;;;;;;5019991;28;20060;-91
2021/10/26 05:58:42;;;;;;;15.90;4.85;;;11.30;99.90;;;;;;4997463;28;20054;-86
2021/10/26 06:01:09;;;;;;;8.70;5.00;;;11.20;99.90;;;;;;5013242;28;20053;-90
2021/10/26 06:03:38;;;;;;;14.32;4.72;;;11.20;99.90;;;;;;5011440;28;20050;-89
2021/10/26 06:06:06;;;;;;;14.23;4.38;;;11.10;99.90;;;;;;5028377;28;20405;-89
2021/10/26 06:08:34;;;;;;;13.60;4.88;;;11.10;99.90;;;;;;5016484;28;20045;-89
2021/10/26 06:11:11;;;;;;;10.27;3.90;;;11.10;99.90;;;;;;4998850;28;20058;-87
2021/10/26 06:13:44;;;;;;;12.02;3.70;;;11.00;99.90;;;;;;5031009;28;20050;-88
2021/10/26 06:16:14;;;;;;;10.02;3.58;;;11.00;99.90;;;;;;5027175;28;20054;-88
2021/10/26 06:18:46;;;;;;;6.95;3.10;;;11.00;99.90;;;;;;5006308;28;20397;-88
2021/10/26 06:21:16;;;;;;;15.02;3.70;;;11.00;99.90;;;;;;4677262;28;10000236;-88
2021/10/26 06:23:48;;;;;;;7.85;3.20;;;12.10;99.90;;;;;;5001416;28;20402;-84
2021/10/26 06:26:16;;;;;;;4.95;2.25;;;10.90;99.90;;;;;;5018618;28;20038;-85
2021/10/26 06:28:50;;;;;;;5.55;2.97;;;10.90;99.90;;;;;;5018606;28;20064;-85
2021/10/26 06:31:18;;;;;;;8.65;3.38;;;11.40;99.90;;;;;;5000882;28;20042;-85
2021/10/26 06:33:50;;;;;;;;;;;10.80;99.90;;;;;;5017435;28;20049;-87
2021/10/26 06:36:28;;;;;;;7.82;3.35;;;10.90;99.90;;;;;;5013360;28;19925;-88
2021/10/26 06:38:56;;;;;;;6.82;2.65;;;10.90;99.90;;;;;;5032085;28;20053;-86
2021/10/26 06:41:25;;;;;;;9.73;2.65;;;10.80;99.90;;;;;;5015401;28;20046;-88
2021/10/26 06:44:14;;;;;;;3.92;2.33;;;10.80;99.90;;;;;;5019720;28;20061;-87
2021/10/26 06:46:45;;;;;;;8.48;2.78;;;10.80;99.90;;;;;;5036741;28;20050;-87
2021/10/26 06:49:32;;;;;;;5.72;2.60;;;10.90;99.90;;;;;;5020866;28;20054;-86
2021/10/26 06:52:20;;;;;;;7.45;3.13;;;10.90;99.90;;;;;;5034763;28;20057;-86
2021/10/26 06:55:08;;;;;;;6.30;2.83;;;10.90;99.90;;;;;;5020302;28;20076;-87
2021/10/26 06:58:01;;;;;;;6.75;3.13;;;10.90;99.90;;;;;;5020494;28;20053;-88
2021/10/26 07:00:52;;;;;;;9.50;4.20;;;10.80;99.90;;;;;;5022209;28;20054;-87
2021/10/26 07:03:43;;;;;;;;;;;10.80;99.90;;;;;;4987865;28;20249;-89
2021/10/26 07:06:30;;;;;;;10.07;3.97;;;10.80;99.90;;;;;;5029088;28;19928;-87
2021/10/26 07:08:58;;;;;;;9.00;4.38;;;10.80;99.90;;;;;;5022955;28;20053;-87
2021/10/26 07:11:30;;;;;;;12.95;4.82;;;10.80;99.90;;;;;;5024201;28;20053;-86
2021/10/26 07:14:03;;;;;;;13.70;4.57;;;10.70;99.90;;;;;;4995298;28;20061;-88
2021/10/26 07:16:33;;;;;;;5.57;3.35;;;10.70;99.90;;;;;;4983503;28;20050;-88
2021/10/26 07:19:02;;;;;;;12.38;5.93;;;10.70;99.90;;;;;;5033211;28;20061;-85
2021/10/26 07:21:50;;;;;;;10.13;4.07;;;10.70;99.90;;;;;;5017299;28;20058;-86
2021/10/26 07:25:01;;;;;;;11.68;4.22;;;10.70;99.90;;;;;;4998507;28;20057;-86
2021/10/26 07:27:31;;;;;;;16.35;4.80;;;10.70;99.90;;;;;;5003817;28;20042;-86
2021/10/26 07:30:06;;;;;;;6.70;3.30;;;10.70;99.90;;;;;;5021436;28;20469;-87
2021/10/26 07:32:38;;;;;;;10.70;4.10;;;10.70;99.90;;;;;;5017490;28;20052;-86
2021/10/26 07:35:08;;;;;;;11.90;4.30;;;10.80;99.90;;;;;;4984320;28;20058;-87
2021/10/26 07:37:40;;;;;;;8.73;4.00;;;10.70;99.90;;;;;;4978855;28;20047;-88
2021/10/26 07:40:17;;;;;;;14.00;5.70;;;10.80;99.90;;;;;;4984237;28;20501;-88
2021/10/26 07:43:13;;;;;;;9.45;4.05;;;10.80;99.90;;;;;;4999642;28;20398;-87
2021/10/26 07:46:05;;;;;;;12.73;3.90;;;10.80;99.90;;;;;;5012923;28;20054;-87
2021/10/26 07:48:35;;;;;;;10.05;4.13;;;10.80;99.90;;;;;;5010426;28;20049;-86
2021/10/26 07:51:09;;;;;;;11.10;4.15;;;10.90;99.90;;;;;;4996476;28;20066;-87
2021/10/26 07:53:44;;;;;;;9.75;3.92;;;10.90;99.90;;;;;;5001632;28;20034;-87
2021/10/26 07:56:16;;;;;;;9.32;3.38;;;11.00;99.90;;;;;;4993822;28;20286;-87
2021/10/26 07:58:49;;;;;;;11.50;3.22;;;11.00;99.90;;;;;;5009410;28;20061;-86
2021/10/26 08:01:18;;;;;;;7.57;3.63;;;11.10;99.90;;;;;;4999082;28;20084;-85
2021/10/26 08:04:00;;;;;;;10.57;3.63;;;11.10;99.90;;;;;;5001486;28;20057;-87
2021/10/26 08:06:32;;;;;;;12.68;3.35;;;11.20;99.90;;;;;;4989843;28;20049;-88
2021/10/26 08:09:08;;;;;;;21.10;2.97;;;11.30;99.90;;;;;;4996509;28;20064;-88
2021/10/26 08:11:39;;;;;;;7.82;2.60;;;11.30;99.90;;;;;;4997819;28;20046;-88
2021/10/26 08:14:11;;;;;;;10.15;2.50;;;11.70;99.90;;;;;;4995547;28;20219;-88
2021/10/26 08:16:40;;;;;;;7.80;2.05;;;11.40;99.90;;;;;;4992268;28;20764;-88
2021/10/26 08:19:10;;;;;;;;;;;11.40;99.90;;;;;;5007430;28;20039;-89
2021/10/26 08:21:44;;;;;;;13.07;3.17;;;11.40;99.90;;;;;;5001456;28;19928;-85
2021/10/26 08:24:14;;;;;;;3.72;2.00;;;11.50;99.90;;;;;;4348711;28;10000816;-88
2021/10/26 08:26:45;;;;;;;10.60;1.98;;;11.60;99.90;;;;;;4979326;28;20661;-87
2021/10/26 08:32:09;;;;;;;10.35;3.40;;;11.60;99.90;;;;;;5007053;28;20042;-88
2021/10/26 08:37:27;;;;;;;10.98;3.53;;;11.70;99.90;;;;;;4993864;28;20050;-88
2021/10/26 08:40:05;;;;;;;7.63;2.30;;;11.70;99.90;;;;;;5026680;28;20046;-88
2021/10/26 08:42:43;;;;;;;8.52;2.40;;;11.80;99.90;;;;;;5029678;28;20041;-90
2021/10/26 08:45:18;;;;;;;4.10;1.90;;;11.80;99.90;;;;;;5021321;28;20445;-88
2021/10/26 08:47:49;;;;;;;2.60;1.98;;;11.90;99.90;;;;;;5022873;28;20046;-88
2021/10/26 08:50:45;;;;;;;5.07;3.08;;;12.00;99.90;;;;;;5024088;28;20061;-89
2021/10/26 08:53:23;;;;;;;5.75;2.35;;;12.00;99.90;;;;;;4994936;28;20057;-89
2021/10/26 08:56:50;;;;;;;3.67;1.98;;;12.10;99.90;;;;;;5018748;28;20052;-89
2021/10/26 09:00:06;;;;;;;;;;;12.20;99.90;;;;;;5026474;28;20053;-91
2021/10/26 09:02:49;;;;;;;5.75;2.10;;;12.10;99.90;;;;;;5004336;28;19926;-89
2021/10/26 09:05:25;;;;;;;6.00;2.47;;;12.40;99.90;;;;;;5007353;28;20517;-90
2021/10/26 09:08:06;;;;;;;6.72;3.13;;;12.40;99.90;;;;;;4999491;28;20053;-89
2021/10/26 09:10:41;;;;;;;5.97;2.08;;;12.50;99.90;;;;;;5033872;28;20041;-92
2021/10/26 09:16:42;;;;;;;10.52;2.15;;;12.60;99.90;;;;;;5011601;28;20042;-88
2021/10/26 09:19:39;;;;;;;8.68;3.55;;;12.60;99.90;;;;;;5020759;28;20049;-88
2021/10/26 09:22:17;;;;;;;4.80;1.90;;;12.70;99.90;;;;;;5025144;28;20042;-88
2021/10/26 09:25:17;;;;;;;6.15;2.20;;;12.70;99.90;;;;;;5035372;28;20056;-89
2021/10/26 09:28:15;;;;;;;10.95;2.90;;;12.80;99.90;;;;;;5021897;28;20492;-90
2021/10/26 09:31:05;;;;;;;12.05;3.30;;;12.80;99.90;;;;;;5014458;28;20052;-89
2021/10/26 09:33:56;;;;;;;10.45;2.35;;;13.00;99.90;;;;;;5004547;28;20045;-89
2021/10/26 09:37:36;;;;;;;8.90;2.28;;;13.00;99.90;;;;;;5039902;28;20056;-88
2021/10/26 09:40:19;;;;;;;10.77;3.28;;;13.00;99.90;;;;;;5045634;28;20056;-87
2021/10/26 09:42:53;;;;;;;7.65;3.08;;;13.00;99.90;;;;;;5041039;28;20092;-90
2021/10/26 09:45:24;;;;;;;7.13;2.47;;;13.10;99.90;;;;;;5013578;28;20038;-88
2021/10/26 09:47:54;;;;;;;10.10;2.47;;;13.10;99.90;;;;;;5020631;28;20050;-89
2021/10/26 09:50:31;;;;;;;12.02;2.40;;;13.10;99.90;;;;;;5020475;28;20045;-88
2021/10/26 09:53:10;;;;;;;10.45;2.30;;;13.20;99.90;;;;;;5036526;28;20045;-90
2021/10/26 09:55:47;;;;;;;8.23;1.50;;;13.30;99.90;;;;;;5054974;28;20391;-92
2021/10/26 09:58:26;;;;;;;9.25;2.75;;;13.40;99.90;;;;;;5025743;28;20294;-88
2021/10/26 10:01:29;;;;;;;10.00;2.20;;;13.50;99.90;;;;;;5039425;28;20057;-90
2021/10/26 10:04:06;;;;;;;9.95;2.55;;;13.70;99.90;;;;;;5009277;28;20071;-88
2021/10/26 10:06:51;;;;;;;9.65;2.20;;;13.80;99.90;;;;;;5020742;28;20068;-88
2021/10/26 10:09:22;;;;;;;13.68;3.30;;;13.90;99.90;;;;;;5014127;28;20057;-87
2021/10/26 10:12:06;;;;;;;12.80;2.78;;;14.00;99.90;;;;;;5027403;28;20064;-89
2021/10/26 10:14:38;;;;;;;12.70;2.27;;;14.10;99.90;;;;;;5021337;28;20137;-88
2021/10/26 10:17:14;;;;;;;12.43;2.80;;;14.20;99.90;;;;;;5024956;28;20287;-88
2021/10/26 10:19:51;;;;;;;14.55;3.05;;;14.20;99.90;;;;;;5025533;28;20555;-89
2021/10/26 10:22:31;;;;;;;12.00;3.20;;;14.30;99.90;;;;;;5022524;28;20045;-88
2021/10/26 10:25:06;;;;;;;13.98;3.17;;;14.30;99.90;;;;;;5021923;28;20048;-89
2021/10/26 10:27:40;;;;;;;13.80;3.35;;;14.40;99.90;;;;;;4671387;28;10000297;-86
2021/10/26 10:30:17;;;;;;;19.52;3.17;;;14.40;99.90;;;;;;4996213;28;20054;-88
2021/10/26 10:32:49;;;;;;;10.40;2.75;;;14.50;99.90;;;;;;5014198;28;20042;-88
2021/10/26 10:35:18;;;;;;;18.05;3.17;;;14.60;99.90;;;;;;4996274;28;20489;-87
2021/10/26 10:37:50;;;;;;;16.23;2.95;;;14.70;99.90;;;;;;4994360;28;20038;-88
2021/10/26 10:40:27;;;;;;;10.75;2.60;;;14.70;99.90;;;;;;4997970;28;20575;-87
2021/10/26 10:43:03;;;;;;;18.70;2.67;;;14.90;99.90;;;;;;5002924;28;20486;-88
2021/10/26 10:45:34;;;;;;;9.32;3.15;;;15.00;99.90;;;;;;5001206;28;20042;-88
2021/10/26 10:48:28;;;;;;;9.52;2.05;;;15.10;99.90;;;;;;4996979;28;20142;-87
2021/10/26 10:51:13;;;;;;;18.83;4.82;;;15.10;99.90;;;;;;4994329;28;20043;-89
2021/10/26 10:53:41;;;;;;;11.18;2.53;;;15.20;99.90;;;;;;5004754;28;20050;-88
2021/10/26 10:56:20;;;;;;;10.80;3.03;;;15.20;99.90;;;;;;4988562;28;20038;-88
2021/10/26 10:58:50;;;;;;;5.95;1.90;;;15.30;99.90;;;;;;4991023;28;20053;-88
2021/10/26 11:01:24;;;;;;;15.52;2.63;;;15.30;99.90;;;;;;4997806;28;20060;-89
2021/10/26 11:03:56;;;;;;;9.02;3.00;;;15.40;99.90;;;;;;4983035;28;20058;-89
2021/10/26 11:06:45;;;;;;;16.25;2.72;;;15.50;99.90;;;;;;5004887;28;20042;-89
2021/10/26 11:09:30;;;;;;;12.50;3.35;;;15.60;99.90;;;;;;4998824;28;20057;-91
2021/10/26 11:12:15;;;;;;;14.05;3.08;;;15.70;99.90;;;;;;5003792;28;20414;-90
2021/10/26 11:14:48;;;;;;;10.20;2.25;;;15.80;99.90;;;;;;4994669;28;20058;-88
2021/10/26 11:17:42;;;;;;;6.38;2.25;;;15.90;99.90;;;;;;4991274;28;20057;-89
2021/10/26 11:20:39;;;;;;;9.93;2.08;;;15.90;99.90;;;;;;5003246;28;20042;-88
2021/10/26 11:23:10;;;;;;;15.52;3.65;;;15.90;99.90;;;;;;5006825;28;20050;-88
2021/10/26 11:25:45;;;;;;;;;;;16.00;99.90;;;;;;5003552;28;20042;-88
2021/10/26 11:28:15;;;;;;;12.88;2.72;;;16.00;99.90;;;;;;4977705;28;19925;-90
2021/10/26 11:30:44;;;;;;;12.38;2.88;;;16.00;99.90;;;;;;4974406;28;20054;-88
2021/10/26 11:33:22;;;;;;;11.90;2.67;;;16.00;99.90;;;;;;5005329;28;20038;-90
2021/10/26 11:36:07;;;;;;;6.75;2.50;;;16.00;99.90;;;;;;5013255;28;20701;-89
2021/10/26 11:38:48;;;;;;;8.98;2.63;;;16.00;99.90;;;;;;4999415;28;20038;-89
2021/10/26 11:41:22;;;;;;;8.05;2.55;;;16.00;99.90;;;;;;5011185;28;20051;-89
2021/10/26 11:43:53;;;;;;;16.30;3.42;;;16.00;99.90;;;;;;5016089;28;20069;-89
2021/10/26 11:46:25;;;;;;;11.63;3.17;;;16.10;99.90;;;;;;5003327;28;20035;-88
2021/10/26 11:48:59;;;;;;;9.23;2.85;;;16.10;99.90;;;;;;5001121;28;20073;-89
2021/10/26 11:51:39;;;;;;;13.95;4.85;;;16.20;99.90;;;;;;5005077;28;20061;-89
2021/10/26 11:54:17;;;;;;;15.75;2.90;;;16.30;99.90;;;;;;5007804;28;20050;-88
2021/10/26 11:56:49;;;;;;;22.02;5.20;;;16.30;99.90;;;;;;4996493;28;20053;-90
2021/10/26 11:59:29;;;;;;;12.30;2.40;;;16.10;99.90;;;;;;4994768;28;20062;-89
2021/10/26 12:02:25;;;;;;;8.65;2.28;;;16.40;99.90;;;;;;4996959;28;20053;-90
2021/10/26 12:05:20;;;;;;;7.95;2.38;;;16.50;99.90;;;;;;4993960;28;20062;-89
2021/10/26 12:07:54;;;;;;;8.93;2.58;;;16.60;99.90;;;;;;4995074;28;20057;-90
2021/10/26 12:10:29;;;;;;;10.02;2.97;;;16.60;99.90;;;;;;5006711;28;20046;-90
2021/10/26 12:13:28;;;;;;;23.80;3.97;;;16.60;99.90;;;;;;5006323;28;20050;-88
2021/10/26 12:15:56;;;;;;;15.85;4.35;;;16.60;99.90;;;;;;4997738;28;20054;-90
2021/10/26 12:18:34;;;;;;;9.30;2.58;;;16.60;99.90;;;;;;4999191;28;20050;-90
2021/10/26 12:21:04;;;;;;;14.80;4.18;;;16.60;99.90;;;;;;5005826;28;20038;-89
2021/10/26 12:23:53;;;;;;;16.02;2.88;;;16.70;99.90;;;;;;4997351;28;20062;-89
2021/10/26 12:26:34;;;;;;;16.10;3.67;;;16.70;99.90;;;;;;5005130;28;20046;-91
2021/10/26 12:29:28;;;;;;;11.85;4.25;;;16.80;99.90;;;;;;5001403;28;20057;-90
2021/10/26 12:32:03;;;;;;;14.63;3.78;;;16.80;99.90;;;;;;5008168;28;20298;-88
2021/10/26 12:34:46;;;;;;;15.63;3.85;;;16.90;99.90;;;;;;5002010;28;20057;-90
2021/10/26 12:37:22;;;;;;;18.38;3.40;;;17.10;99.90;;;;;;5036214;28;20569;-89
2021/10/26 12:39:53;;;;;;;8.45;2.70;;;17.10;99.90;;;;;;5024239;28;20045;-91
2021/10/26 12:43:02;;;;;;;11.25;2.42;;;17.20;99.90;;;;;;5017583;28;20068;-91
2021/10/26 12:45:35;;;;;;;15.60;3.33;;;17.30;99.90;;;;;;5009500;28;20056;-91
2021/10/26 12:48:10;;;;;;;11.38;3.60;;;17.30;99.90;;;;;;5033527;28;20063;-92
2021/10/26 12:50:51;;;;;;;10.38;2.45;;;17.40;99.90;;;;;;5036759;28;20045;-94
2021/10/26 12:53:42;;;;;;;12.85;3.35;;;17.40;99.90;;;;;;5032076;28;20048;-95
2021/10/26 12:57:14;;;;;;;17.25;3.00;;;18.60;99.90;;;;;;5002923;28;20056;-95
2021/10/26 12:59:48;;;;;;;8.77;2.83;;;17.20;99.90;;;;;;5030561;28;20048;-94
2021/10/26 13:02:44;;;;;;;9.57;3.83;;;17.60;99.90;;;;;;5016317;28;20042;-96
2021/10/26 13:05:49;;;;;;;7.65;2.92;;;17.50;99.90;;;;;;5022645;28;20044;-95
2021/10/26 13:08:48;;;;;;;12.30;3.05;;;17.50;99.90;;;;;;5042869;28;20065;-96
2021/10/26 13:11:39;;;;;;;12.73;2.55;;;17.50;99.90;;;;;;5032639;28;20060;-95
2021/10/26 13:15:06;;;;;;;15.38;2.35;;;17.40;99.90;;;;;;5041490;28;20047;-94
2021/10/26 13:18:04;;;;;;;12.25;2.38;;;17.30;99.90;;;;;;5031633;28;20054;-93
2021/10/26 13:20:43;;;;;;;16.90;3.15;;;17.30;99.90;;;;;;5037686;28;20050;-95
2021/10/26 13:23:35;;;;;;;17.98;3.30;;;17.30;99.90;;;;;;4995339;28;20038;-94
2021/10/26 13:26:17;;;;;;;19.08;3.10;;;17.40;99.90;;;;;;5044881;28;20061;-94
2021/10/26 13:29:48;;;;;;;9.02;2.20;;;17.40;99.90;;;;;;5029938;28;20045;-94
2021/10/26 13:32:49;;;;;;;15.30;4.60;;;17.50;99.90;;;;;;4701638;28;10000613;-93
2021/10/26 13:35:48;;;;;;;13.55;3.78;;;17.50;99.90;;;;;;5038653;28;20056;-95
2021/10/26 13:39:23;;;;;;;8.68;2.25;;;17.40;99.90;;;;;;4752143;23;20367;-82